createdAt,value
2018-12-07T00:01:48.137Z,18.63
2018-12-07T00:04:15.967Z,22.13
2018-12-07T00:06:43.539Z,20.40
2018-12-07T00:09:11.868Z,19.63
2018-12-07T00:11:39.426Z,13.63
2018-12-07T00:14:07.271Z,15.03
2018-12-07T00:16:34.865Z,13.03
2018-12-07T00:19:02.409Z,51.33
2018-12-07T00:21:30.304Z,56.93
2018-12-07T00:23:58.077Z,34.13
2018-12-07T00:26:25.614Z,21.60
2018-12-07T00:28:53.193Z,23.23
2018-12-07T00:31:20.739Z,15.00
2018-12-07T00:33:48.656Z,12.20
2018-12-07T00:36:16.419Z,20.33
2018-12-07T00:38:44.105Z,20.60
2018-12-07T00:41:11.877Z,22.60
2018-12-07T00:43:40.165Z,33.37
2018-12-07T00:46:08.277Z,17.83
2018-12-07T00:48:35.820Z,19.63
2018-12-07T00:51:03.640Z,19.90
2018-12-07T00:53:31.457Z,16.33
2018-12-07T00:55:59.438Z,11.03
2018-12-07T00:58:27.206Z,12.40
2018-12-07T01:00:54.924Z,11.00
2018-12-07T01:03:22.734Z,11.63
2018-12-07T01:05:50.439Z,8.70
2018-12-07T01:08:18.183Z,8.97
2018-12-07T01:10:45.855Z,10.33
2018-12-07T01:13:13.597Z,10.53
2018-12-07T01:15:41.464Z,18.83
2018-12-07T01:18:09.506Z,12.97
2018-12-07T01:20:37.079Z,20.57
2018-12-07T01:23:04.765Z,9.67
2018-12-07T01:25:32.919Z,16.43
2018-12-07T01:28:00.532Z,14.87
2018-12-07T01:30:28.216Z,9.23
2018-12-07T01:32:55.745Z,12.23
2018-12-07T01:35:23.305Z,8.63
2018-12-07T01:37:51.172Z,9.83
2018-12-07T01:40:19.114Z,12.47
2018-12-07T01:42:47.499Z,9.43
2018-12-07T01:45:15.346Z,9.70
2018-12-07T01:47:45.495Z,8.97
2018-12-07T01:50:14.883Z,18.37
2018-12-07T01:52:42.769Z,12.33
2018-12-07T01:55:10.351Z,8.57
2018-12-07T01:57:37.909Z,7.47
2018-12-07T02:00:07.577Z,7.83
2018-12-07T02:02:35.539Z,7.77
2018-12-07T02:05:03.349Z,10.73
2018-12-07T02:07:32.990Z,12.03
2018-12-07T02:10:00.767Z,11.93
2018-12-07T02:12:28.697Z,67.83
2018-12-07T02:14:56.528Z,13.77
2018-12-07T02:17:24.565Z,43.43
2018-12-07T02:19:52.178Z,13.73
2018-12-07T02:22:19.888Z,9.50
2018-12-07T02:24:47.579Z,7.03
2018-12-07T02:27:16.285Z,11.97
2018-12-07T02:29:44.156Z,9.33
2018-12-07T02:32:12.591Z,13.77
2018-12-07T02:34:40.186Z,10.10
2018-12-07T02:37:07.958Z,7.20
2018-12-07T02:39:35.498Z,7.10
2018-12-07T02:42:03.281Z,7.33
2018-12-07T02:44:31.080Z,7.50
2018-12-07T02:46:58.751Z,11.27
2018-12-07T02:49:26.312Z,12.40
2018-12-07T02:51:54.130Z,17.40
2018-12-07T02:54:21.785Z,19.70
2018-12-07T02:56:49.379Z,16.87
2018-12-07T02:59:17.090Z,15.40
2018-12-07T03:01:44.618Z,6.93
2018-12-07T03:04:12.440Z,9.00
2018-12-07T03:06:40.087Z,7.00
2018-12-07T03:09:07.703Z,8.20
2018-12-07T03:11:35.311Z,6.03
2018-12-07T03:14:03.069Z,9.40
2018-12-07T03:16:30.600Z,7.50
2018-12-07T03:18:58.596Z,11.37
2018-12-07T03:21:26.666Z,10.83
2018-12-07T03:23:54.267Z,6.77
2018-12-07T03:26:21.837Z,9.47
2018-12-07T03:28:49.362Z,10.97
2018-12-07T03:31:17.051Z,17.20
2018-12-07T03:33:44.752Z,8.93
2018-12-07T03:36:12.373Z,13.50
2018-12-07T03:38:39.900Z,9.20
2018-12-07T03:41:07.491Z,6.47
2018-12-07T03:43:35.401Z,17.53
2018-12-07T03:46:02.936Z,9.97
2018-12-07T03:48:30.520Z,4.20
2018-12-07T03:50:58.127Z,34.70
2018-12-07T03:53:25.903Z,27.27
2018-12-07T03:55:53.737Z,21.17
2018-12-07T03:58:21.365Z,10.10
2018-12-07T04:00:48.906Z,6.50
2018-12-07T04:03:16.731Z,4.87
2018-12-07T04:05:44.262Z,5.80
2018-12-07T04:08:12.051Z,6.67
2018-12-07T04:10:39.621Z,4.57
2018-12-07T04:13:07.151Z,7.20
2018-12-07T04:15:35.083Z,7.97
2018-12-07T04:18:02.834Z,7.63
2018-12-07T04:20:30.693Z,7.93
2018-12-07T04:22:58.253Z,7.10
2018-12-07T04:25:25.827Z,5.60
2018-12-07T04:27:53.357Z,4.10
2018-12-07T04:30:23.898Z,6.77
2018-12-07T04:32:51.689Z,4.03
2018-12-07T04:35:19.235Z,3.90
2018-12-07T04:37:46.963Z,5.37
2018-12-07T04:40:14.591Z,4.87
2018-12-07T04:42:42.284Z,4.80
2018-12-07T04:45:10.283Z,4.00
2018-12-07T04:47:38.275Z,2.93
2018-12-07T04:50:06.110Z,4.03
2018-12-07T04:52:33.638Z,3.67
2018-12-07T04:55:01.218Z,5.27
2018-12-07T04:57:28.886Z,4.30
2018-12-07T04:59:56.421Z,4.67
2018-12-07T05:02:23.989Z,3.17
2018-12-07T05:04:51.701Z,4.50
2018-12-07T05:07:19.237Z,4.73
2018-12-07T05:09:46.806Z,4.13
2018-12-07T05:12:14.614Z,3.97
2018-12-07T05:14:42.527Z,9.33
2018-12-07T05:17:10.418Z,7.50
2018-12-07T05:19:38.025Z,5.03
2018-12-07T05:22:05.876Z,4.90
2018-12-07T05:24:34.592Z,5.10
2018-12-07T05:27:02.741Z,5.37
2018-12-07T05:29:30.286Z,6.03
2018-12-07T05:31:57.962Z,5.93
2018-12-07T05:34:25.501Z,4.80
2018-12-07T05:36:53.260Z,5.17
2018-12-07T05:39:21.137Z,5.07
2018-12-07T05:41:48.724Z,5.83
2018-12-07T05:44:17.482Z,6.57
2018-12-07T05:46:45.458Z,6.07
2018-12-07T05:49:13.007Z,7.40
2018-12-07T05:51:40.537Z,7.63
2018-12-07T05:54:08.162Z,7.13
2018-12-07T05:56:35.722Z,5.93
2018-12-07T05:59:03.374Z,7.13
2018-12-07T06:01:31.342Z,5.73
2018-12-07T06:03:58.868Z,6.80
2018-12-07T06:06:26.435Z,7.43
2018-12-07T06:08:54.184Z,6.33
2018-12-07T06:11:22.169Z,5.97
2018-12-07T06:13:50.080Z,6.60
2018-12-07T06:16:17.838Z,5.13
2018-12-07T06:18:45.590Z,5.73
2018-12-07T06:21:13.129Z,7.07
2018-12-07T06:23:41.135Z,7.33
2018-12-07T06:26:08.811Z,7.47
2018-12-07T06:28:36.402Z,7.07
2018-12-07T06:31:04.514Z,6.57
2018-12-07T06:33:32.045Z,5.03
2018-12-07T06:35:59.575Z,6.17
2018-12-07T06:38:27.166Z,5.83
2018-12-07T06:40:54.711Z,5.57
2018-12-07T06:43:22.616Z,5.80
2018-12-07T06:45:50.664Z,7.30
2018-12-07T06:48:18.507Z,6.50
2018-12-07T06:50:46.219Z,6.23
2018-12-07T06:53:13.870Z,10.03
2018-12-07T06:55:41.407Z,7.33
2018-12-07T06:58:08.934Z,7.70
2018-12-07T07:00:36.630Z,7.60
2018-12-07T07:03:04.525Z,7.63
2018-12-07T07:05:32.108Z,8.70
2018-12-07T07:07:59.838Z,8.93
2018-12-07T07:10:27.368Z,5.33
2018-12-07T07:12:54.899Z,6.80
2018-12-07T07:15:22.801Z,9.40
2018-12-07T07:17:50.663Z,13.57
2018-12-07T07:20:18.558Z,14.27
2018-12-07T07:22:46.165Z,12.80
2018-12-07T07:25:14.155Z,14.57
2018-12-07T07:27:41.833Z,13.33
2018-12-07T07:30:09.618Z,9.47
2018-12-07T07:32:37.156Z,9.77
2018-12-07T07:35:05.417Z,10.80
2018-12-07T07:37:33.001Z,10.93
2018-12-07T07:40:00.538Z,14.93
2018-12-07T07:42:28.271Z,17.33
2018-12-07T07:44:56.015Z,10.37
2018-12-07T07:47:23.634Z,8.53
2018-12-07T07:49:51.249Z,6.80
2018-12-07T07:52:19.083Z,8.60
2018-12-07T07:54:47.026Z,8.47
2018-12-07T07:57:14.563Z,6.93
2018-12-07T07:59:42.330Z,7.30
2018-12-07T08:02:10.087Z,10.30
2018-12-07T08:04:37.795Z,7.43
2018-12-07T08:07:05.363Z,7.00
2018-12-07T08:09:33.059Z,8.57
2018-12-07T08:12:00.583Z,9.00
2018-12-07T08:14:28.163Z,13.57
2018-12-07T08:16:55.979Z,22.10
2018-12-07T08:19:24.044Z,8.67
2018-12-07T08:21:51.923Z,9.53
2018-12-07T08:24:19.776Z,11.27
2018-12-07T08:26:47.798Z,40.80
2018-12-07T08:29:15.487Z,11.00
2018-12-07T08:31:43.154Z,10.37
2018-12-07T08:34:10.907Z,10.13
2018-12-07T08:36:38.476Z,11.13
2018-12-07T08:39:08.694Z,90.43
2018-12-07T08:41:36.896Z,9.03
2018-12-07T08:44:05.194Z,13.00
2018-12-07T08:46:32.729Z,8.03
2018-12-07T08:49:00.257Z,13.30
2018-12-07T08:51:28.120Z,9.77
2018-12-07T08:53:55.818Z,10.57
2018-12-07T08:56:23.867Z,9.77
2018-12-07T08:58:51.471Z,10.03
2018-12-07T09:01:19.383Z,8.87
2018-12-07T09:03:46.911Z,9.37
2018-12-07T09:06:14.828Z,10.57
2018-12-07T09:08:42.662Z,10.63
2018-12-07T09:11:10.229Z,9.37
2018-12-07T09:13:38.619Z,10.27
2018-12-07T09:16:06.165Z,11.27
2018-12-07T09:18:33.841Z,14.60
2018-12-07T09:21:01.413Z,16.73
2018-12-07T09:23:29.182Z,27.53
2018-12-07T09:25:56.807Z,34.53
2018-12-07T09:28:24.555Z,42.23
2018-12-07T09:30:52.356Z,22.13
2018-12-07T09:33:20.011Z,16.60
2018-12-07T09:35:47.855Z,11.90
2018-12-07T09:38:15.512Z,11.10
2018-12-07T09:40:43.607Z,12.20
2018-12-07T09:43:11.364Z,12.93
2018-12-07T09:45:39.172Z,11.33
2018-12-07T09:48:06.946Z,32.70
2018-12-07T09:50:34.644Z,16.63
2018-12-07T09:53:02.386Z,12.37
2018-12-07T09:55:30.018Z,10.97
2018-12-07T09:57:57.596Z,21.50
2018-12-07T10:00:25.321Z,15.30
2018-12-07T10:02:52.884Z,20.77
2018-12-07T10:05:20.849Z,12.67
2018-12-07T10:07:48.384Z,9.33
2018-12-07T10:10:16.351Z,22.20
2018-12-07T10:12:43.938Z,15.43
2018-12-07T10:15:11.599Z,13.20
2018-12-07T10:17:39.151Z,13.90
2018-12-07T10:20:07.090Z,12.43
2018-12-07T10:22:34.915Z,10.70
2018-12-07T10:25:02.678Z,11.97
2018-12-07T10:27:30.265Z,9.67
2018-12-07T10:29:58.021Z,11.70
2018-12-07T10:32:25.661Z,11.00
2018-12-07T10:34:53.461Z,10.07
2018-12-07T10:37:21.857Z,11.60
2018-12-07T10:39:49.389Z,11.60
2018-12-07T10:42:17.190Z,14.43
2018-12-07T10:44:44.791Z,28.33
2018-12-07T10:47:12.541Z,22.03
2018-12-07T10:49:40.197Z,12.90
2018-12-07T10:52:08.024Z,13.27
2018-12-07T10:54:35.556Z,10.40
2018-12-07T10:57:03.521Z,12.07
2018-12-07T10:59:31.223Z,12.57
2018-12-07T11:02:04.468Z,13.47
2018-12-07T11:04:37.732Z,13.00
2018-12-07T11:07:11.238Z,12.30
2018-12-07T11:09:46.017Z,10.73
2018-12-07T11:12:19.535Z,12.13
2018-12-07T11:14:52.779Z,10.00
2018-12-07T11:17:26.099Z,10.03
2018-12-07T11:19:59.467Z,10.77
2018-12-07T11:22:41.013Z,9.37
2018-12-07T11:25:14.273Z,11.70
2018-12-07T11:31:02.881Z,29.67
2018-12-07T11:33:35.189Z,10.87
2018-12-07T11:36:08.062Z,14.70
2018-12-07T11:38:32.523Z,25.60
2018-12-07T11:41:00.559Z,18.07
2018-12-07T11:43:28.323Z,14.53
2018-12-07T11:45:56.191Z,14.40
2018-12-07T11:48:24.078Z,18.37
2018-12-07T11:50:51.929Z,21.70
2018-12-07T11:53:19.686Z,23.57
2018-12-07T11:55:48.097Z,23.77
2018-12-07T11:58:15.824Z,76.40
2018-12-07T12:00:43.579Z,16.13
2018-12-07T12:03:11.494Z,12.10
2018-12-07T12:05:39.534Z,15.90
2018-12-07T12:08:07.506Z,22.53
2018-12-07T12:10:35.626Z,12.33
2018-12-07T12:13:03.643Z,9.53
2018-12-07T12:15:31.607Z,9.97
2018-12-07T12:17:59.559Z,14.73
2018-12-07T12:20:27.272Z,12.17
2018-12-07T12:22:55.110Z,11.63
2018-12-07T12:25:22.740Z,11.63
2018-12-07T12:27:50.742Z,11.30
2018-12-07T12:30:18.300Z,52.27
2018-12-07T12:32:46.006Z,55.70
2018-12-07T12:35:13.611Z,15.00
2018-12-07T12:37:41.686Z,10.60
2018-12-07T12:40:09.744Z,11.13
2018-12-07T12:42:37.323Z,16.33
2018-12-07T12:45:05.278Z,11.43
2018-12-07T12:47:33.087Z,12.23
2018-12-07T12:50:00.647Z,10.50
2018-12-07T12:52:28.617Z,10.47
2018-12-07T12:54:56.587Z,10.57
2018-12-07T12:57:24.301Z,13.37
2018-12-07T12:59:51.983Z,10.70
2018-12-07T13:02:20.258Z,11.07
2018-12-07T13:04:48.229Z,45.50
2018-12-07T13:07:15.892Z,21.30
2018-12-07T13:09:43.614Z,22.40
2018-12-07T13:12:11.167Z,58.00
2018-12-07T13:14:38.733Z,9.47
2018-12-07T13:17:06.365Z,9.83
2018-12-07T13:19:33.993Z,9.53
2018-12-07T13:22:01.565Z,11.30
2018-12-07T13:24:29.441Z,10.10
2018-12-07T13:26:57.118Z,12.23
2018-12-07T13:29:24.668Z,12.23
2018-12-07T13:31:52.357Z,52.60
2018-12-07T13:34:20.185Z,68.80
2018-12-07T13:36:48.219Z,22.60
2018-12-07T13:39:15.848Z,22.30
2018-12-07T13:41:50.209Z,10.83
2018-12-07T13:44:13.229Z,16.37
2018-12-07T13:46:40.924Z,22.33
2018-12-07T13:49:08.673Z,22.67
2018-12-07T13:51:36.362Z,17.00
2018-12-07T13:54:04.141Z,16.93
2018-12-07T13:56:32.234Z,14.57
2018-12-07T13:59:00.218Z,13.30
2018-12-07T14:01:28.041Z,11.93
2018-12-07T14:03:55.880Z,11.53
2018-12-07T14:06:24.206Z,13.83
2018-12-07T14:08:52.248Z,32.67
2018-12-07T14:11:20.122Z,10.20
2018-12-07T14:13:47.899Z,11.80
2018-12-07T14:16:15.587Z,20.67
2018-12-07T14:18:44.188Z,13.23
2018-12-07T14:21:13.972Z,10.90
2018-12-07T14:23:41.964Z,15.33
2018-12-07T14:26:10.265Z,9.87
2018-12-07T14:28:38.414Z,16.33
2018-12-07T14:31:06.128Z,27.27
2018-12-07T14:33:34.204Z,23.30
2018-12-07T14:36:02.107Z,9.70
2018-12-07T14:38:30.092Z,11.70
2018-12-07T14:40:58.237Z,10.73
2018-12-07T14:43:27.339Z,11.03
2018-12-07T14:45:55.367Z,20.63
2018-12-07T14:48:23.505Z,16.90
2018-12-07T14:50:51.363Z,11.57
2018-12-07T14:53:19.124Z,11.70
2018-12-07T14:55:50.027Z,9.73
2018-12-07T14:58:17.999Z,9.63
2018-12-07T15:00:45.746Z,9.13
2018-12-07T15:03:13.439Z,4.77
2018-12-07T15:05:41.142Z,6.20
2018-12-07T15:08:08.913Z,7.33
2018-12-07T15:10:36.800Z,6.93
2018-12-07T15:13:04.779Z,6.73
2018-12-07T15:15:32.432Z,7.73
2018-12-07T15:18:00.143Z,7.57
2018-12-07T15:20:27.907Z,7.03
2018-12-07T15:22:55.784Z,9.07
2018-12-07T15:25:23.685Z,9.00
2018-12-07T15:27:51.734Z,17.40
2018-12-07T15:30:20.483Z,53.40
2018-12-07T15:32:48.077Z,112.50
2018-12-07T15:35:16.822Z,16.13
2018-12-07T15:37:44.907Z,53.23
2018-12-07T15:40:12.795Z,23.80
2018-12-07T15:42:41.139Z,9.20
2018-12-07T15:45:08.972Z,8.83
2018-12-07T15:47:36.714Z,10.00
2018-12-07T15:50:06.144Z,25.43
2018-12-07T15:52:34.075Z,12.87
2018-12-07T15:55:01.814Z,12.80
2018-12-07T15:57:29.731Z,9.50
2018-12-07T15:59:57.544Z,10.57
2018-12-07T16:02:25.233Z,15.07
2018-12-07T16:04:53.428Z,30.90
2018-12-07T16:07:21.224Z,40.70
2018-12-07T16:09:49.430Z,137.03
2018-12-07T16:12:17.476Z,69.50
2018-12-07T16:14:45.304Z,32.70
2018-12-07T16:17:13.181Z,29.53
2018-12-07T16:19:41.243Z,14.53
2018-12-07T16:22:09.223Z,26.43
2018-12-07T16:24:38.538Z,18.77
2018-12-07T16:27:06.131Z,11.63
2018-12-07T16:29:33.771Z,15.20
2018-12-07T16:32:08.958Z,20.13
2018-12-07T16:37:15.753Z,18.40
2018-12-07T16:39:44.808Z,9.67
2018-12-07T16:42:12.842Z,9.17
2018-12-07T16:44:40.840Z,9.83
2018-12-07T16:47:08.977Z,5.70
2018-12-07T16:49:37.582Z,6.90
2018-12-07T16:52:10.977Z,9.70
2018-12-07T16:54:41.810Z,11.93
2018-12-07T16:57:09.662Z,9.63
2018-12-07T16:59:39.233Z,9.73
2018-12-07T17:02:07.914Z,10.97
2018-12-07T17:04:38.627Z,10.77
2018-12-07T17:07:07.087Z,16.10
2018-12-07T17:09:38.060Z,15.07
2018-12-07T17:12:08.765Z,16.83
2018-12-07T17:14:40.360Z,14.77
2018-12-07T17:17:11.463Z,17.80
2018-12-07T17:19:39.364Z,15.60
2018-12-07T17:22:08.418Z,17.83
2018-12-07T17:24:36.201Z,26.13
2018-12-07T17:27:04.185Z,18.57
2018-12-07T17:29:32.167Z,20.30
2018-12-07T17:32:00.181Z,22.73
2018-12-07T17:34:29.396Z,20.93
2018-12-07T17:36:57.423Z,23.33
2018-12-07T17:39:25.243Z,28.53
2018-12-07T17:41:53.506Z,24.23
2018-12-07T17:44:21.092Z,20.87
2018-12-07T17:46:48.937Z,59.97
2018-12-07T17:49:17.149Z,21.13
2018-12-07T17:51:46.687Z,30.50
2018-12-07T17:54:14.640Z,20.67
2018-12-07T17:56:42.994Z,50.07
2018-12-07T17:59:11.314Z,50.00
2018-12-07T18:01:39.136Z,21.43
2018-12-07T18:04:07.187Z,17.40
2018-12-07T18:06:34.749Z,18.50
2018-12-07T18:09:02.468Z,23.67
2018-12-07T18:11:30.309Z,20.97
2018-12-07T18:13:58.001Z,23.53
2018-12-07T18:16:26.984Z,19.73
2018-12-07T18:18:54.770Z,20.40
2018-12-07T18:21:22.724Z,28.87
2018-12-07T18:23:50.549Z,37.10
2018-12-07T18:26:18.349Z,44.27
2018-12-07T18:28:46.354Z,36.00
2018-12-07T18:31:14.371Z,28.10
2018-12-07T18:33:42.838Z,23.10
2018-12-07T18:36:10.757Z,22.60
2018-12-07T18:38:38.610Z,38.97
2018-12-07T18:41:06.655Z,87.33
2018-12-07T18:43:34.768Z,82.37
2018-12-07T18:46:02.869Z,83.97
2018-12-07T18:48:30.659Z,81.90
2018-12-07T18:50:58.405Z,100.87
2018-12-07T18:53:26.694Z,160.63
2018-12-07T18:55:54.761Z,135.40
2018-12-07T18:58:22.630Z,147.23
2018-12-07T19:00:50.614Z,73.70
2018-12-07T19:03:18.603Z,60.17
2018-12-07T19:05:46.593Z,133.27
2018-12-07T19:08:14.730Z,262.47
2018-12-07T19:10:42.604Z,249.63
2018-12-07T19:13:10.837Z,344.40
2018-12-07T19:15:38.728Z,308.87
2018-12-07T19:18:07.953Z,275.83
2018-12-07T19:20:36.122Z,276.87
2018-12-07T19:23:06.061Z,268.47
2018-12-07T19:25:35.206Z,287.63
2018-12-07T19:28:04.400Z,179.67
2018-12-07T19:30:33.953Z,200.97
2018-12-07T19:33:01.784Z,195.70
2018-12-07T19:35:29.624Z,62.03
2018-12-07T19:37:57.472Z,20.80
2018-12-07T19:40:25.282Z,16.03
2018-12-07T19:42:53.489Z,88.63
2018-12-07T19:45:21.418Z,97.90
2018-12-07T19:47:49.430Z,74.77
2018-12-07T19:50:17.411Z,28.00
2018-12-07T19:52:45.798Z,18.27
2018-12-07T19:55:13.557Z,8.37
2018-12-07T19:57:41.169Z,15.80
2018-12-07T20:00:09.787Z,86.23
2018-12-07T20:02:39.177Z,69.50
2018-12-07T20:05:08.153Z,42.70
2018-12-07T20:07:36.254Z,44.93
2018-12-07T20:10:05.194Z,33.87
2018-12-07T20:12:33.188Z,48.27
2018-12-07T20:15:01.182Z,90.37
2018-12-07T20:17:29.798Z,67.13
2018-12-07T20:19:57.478Z,73.17
2018-12-07T20:22:26.365Z,36.80
2018-12-07T20:24:54.380Z,183.53
2018-12-07T20:27:22.232Z,66.80
2018-12-07T20:29:49.993Z,15.83
2018-12-07T20:32:17.950Z,16.30
2018-12-07T20:34:45.991Z,32.73
2018-12-07T20:37:13.957Z,6.33
2018-12-07T20:39:41.612Z,7.70
2018-12-07T20:42:09.276Z,22.53
2018-12-07T20:44:37.089Z,14.17
2018-12-07T20:47:04.991Z,52.07
2018-12-07T20:49:33.124Z,23.27
2018-12-07T20:52:01.620Z,4.67
2018-12-07T20:54:29.493Z,7.93
2018-12-07T20:56:57.312Z,15.83
2018-12-07T20:59:25.310Z,25.60
2018-12-07T21:01:53.120Z,34.23
2018-12-07T21:04:27.936Z,55.83
2018-12-07T21:10:31.425Z,404.17
2018-12-07T21:19:26.232Z,164.83
2018-12-07T21:21:54.218Z,80.20
2018-12-07T21:24:22.034Z,80.57
2018-12-07T21:26:49.649Z,99.23
2018-12-07T21:29:17.300Z,99.40
2018-12-07T21:31:45.336Z,79.13
2018-12-07T21:34:19.821Z,30.33
2018-12-07T21:36:47.959Z,35.23
2018-12-07T21:39:21.729Z,27.53
2018-12-07T21:41:49.513Z,24.87
2018-12-07T21:44:17.662Z,76.33
2018-12-07T21:46:45.698Z,37.17
2018-12-07T21:49:13.576Z,27.30
2018-12-07T21:51:49.662Z,60.37
2018-12-07T21:54:17.584Z,41.83
2018-12-07T21:56:45.632Z,39.73
2018-12-07T21:59:13.272Z,79.67
2018-12-07T22:01:41.611Z,48.10
2018-12-07T22:04:10.571Z,72.77
2018-12-07T22:06:38.592Z,58.93
2018-12-07T22:09:06.616Z,37.87
2018-12-07T22:11:35.315Z,39.97
2018-12-07T22:14:03.650Z,51.17
2018-12-07T22:16:31.495Z,42.77
2018-12-07T22:18:59.486Z,36.80
2018-12-07T22:21:27.494Z,38.77
2018-12-07T22:23:55.416Z,32.17
2018-12-07T22:26:23.493Z,22.87
2018-12-07T22:28:51.397Z,25.57
2018-12-07T22:31:19.328Z,21.43
2018-12-07T22:33:47.269Z,24.20
2018-12-07T22:36:15.072Z,34.27
2018-12-07T22:38:42.928Z,57.87
2018-12-07T22:41:10.777Z,48.40
2018-12-07T22:43:39.313Z,29.17
2018-12-07T22:46:07.123Z,47.77
2018-12-07T22:48:34.920Z,42.53
2018-12-07T22:51:02.680Z,71.40
2018-12-07T22:53:30.227Z,56.80
2018-12-07T22:55:57.997Z,34.63
2018-12-07T22:58:25.578Z,22.53
2018-12-07T23:00:53.143Z,20.57
2018-12-07T23:03:20.675Z,15.87
2018-12-07T23:05:48.251Z,15.87
2018-12-07T23:08:15.882Z,27.03
2018-12-07T23:10:43.428Z,333.53
2018-12-07T23:13:11.030Z,24.87
2018-12-07T23:15:38.594Z,69.70
2018-12-07T23:18:06.132Z,88.83
2018-12-07T23:20:33.702Z,16.90
2018-12-07T23:23:01.233Z,61.30
2018-12-07T23:25:28.799Z,177.57
2018-12-07T23:27:56.369Z,20.30
2018-12-07T23:30:24.068Z,228.23
2018-12-07T23:32:51.726Z,71.27
2018-12-07T23:35:19.399Z,22.07
2018-12-07T23:37:47.097Z,17.00
2018-12-07T23:40:14.944Z,54.03
2018-12-07T23:42:42.975Z,29.30
2018-12-07T23:45:10.669Z,27.13
2018-12-07T23:47:38.214Z,19.17
2018-12-07T23:50:07.210Z,18.40
2018-12-07T23:52:35.231Z,24.23
2018-12-07T23:55:02.870Z,16.50
2018-12-07T23:57:30.674Z,15.83
2018-12-07T23:59:58.211Z,20.80
